createdAt,value
2018-07-17T00:04:27.608Z,4.93
2018-07-17T00:09:31.139Z,4.90
2018-07-17T00:14:35.274Z,4.83
2018-07-17T00:19:39.430Z,5.43
2018-07-17T00:24:43.347Z,4.90
2018-07-17T00:29:47.312Z,5.37
2018-07-17T00:34:50.848Z,5.70
2018-07-17T00:40:00.942Z,4.80
2018-07-17T00:45:04.934Z,5.27
2018-07-17T00:50:08.795Z,5.40
2018-07-17T00:55:12.688Z,5.83
2018-07-17T01:00:16.516Z,6.33
2018-07-17T01:05:25.455Z,5.40
2018-07-17T01:10:34.510Z,6.10
2018-07-17T01:15:39.167Z,6.00
2018-07-17T01:20:42.779Z,6.37
2018-07-17T01:25:46.871Z,5.87
2018-07-17T01:30:50.367Z,6.10
2018-07-17T01:35:53.898Z,5.60
2018-07-17T01:40:57.832Z,6.10
2018-07-17T01:46:01.352Z,6.03
2018-07-17T01:51:05.124Z,6.10
2018-07-17T01:56:08.751Z,6.73
2018-07-17T02:01:12.254Z,6.80
2018-07-17T02:06:15.795Z,6.37
2018-07-17T02:11:19.316Z,6.60
2018-07-17T02:16:23.270Z,6.30
2018-07-17T02:21:26.799Z,6.57
2018-07-17T02:26:30.633Z,5.80
2018-07-17T02:31:34.440Z,7.10
2018-07-17T02:36:45.900Z,6.63
2018-07-17T02:41:49.821Z,6.80
2018-07-17T02:46:53.347Z,6.90
2018-07-17T02:51:57.298Z,6.27
2018-07-17T02:57:01.623Z,7.20
2018-07-17T03:02:05.891Z,6.40
2018-07-17T03:07:10.276Z,6.90
2018-07-17T03:12:15.957Z,7.40
2018-07-17T03:17:20.384Z,6.70
2018-07-17T03:22:23.896Z,6.90
2018-07-17T03:27:27.536Z,7.53
2018-07-17T03:32:32.458Z,6.97
2018-07-17T03:37:36.149Z,6.77
2018-07-17T03:42:39.709Z,6.87
2018-07-17T03:47:43.228Z,7.07
2018-07-17T03:52:46.768Z,7.30
2018-07-17T03:57:50.288Z,7.50
2018-07-17T04:02:53.845Z,8.57
2018-07-17T04:07:57.359Z,7.30
2018-07-17T04:13:01.138Z,7.23
2018-07-17T04:18:04.710Z,7.20
2018-07-17T04:23:08.335Z,10.37
2018-07-17T04:28:11.875Z,7.70
2018-07-17T04:33:15.387Z,7.23
2018-07-17T04:38:18.944Z,7.80
2018-07-17T04:43:22.484Z,7.67
2018-07-17T04:48:26.017Z,7.30
2018-07-17T04:53:29.813Z,7.07
2018-07-17T04:58:33.652Z,7.90
2018-07-17T05:03:38.131Z,8.50
2018-07-17T05:08:41.768Z,8.00
2018-07-17T05:13:45.331Z,8.87
2018-07-17T05:18:49.156Z,8.97
2018-07-17T05:23:52.667Z,8.83
2018-07-17T05:28:56.774Z,8.97
2018-07-17T05:34:00.527Z,8.73
2018-07-17T05:39:05.272Z,8.37
2018-07-17T05:44:08.957Z,8.70
2018-07-17T05:49:16.479Z,8.90
2018-07-17T05:54:20.012Z,8.80
2018-07-17T05:59:23.867Z,9.37
2018-07-17T06:04:27.381Z,9.37
2018-07-17T06:09:30.972Z,8.40
2018-07-17T06:14:34.492Z,8.20
2018-07-17T06:19:38.307Z,7.47
2018-07-17T06:24:41.823Z,7.10
2018-07-17T06:29:45.420Z,7.20
2018-07-17T06:34:49.208Z,7.03
2018-07-17T06:39:53.784Z,6.33
2018-07-17T06:44:57.331Z,6.10
2018-07-17T06:50:00.848Z,6.17
2018-07-17T06:55:04.595Z,5.97
2018-07-17T07:00:08.197Z,6.20
2018-07-17T07:05:12.037Z,6.00
2018-07-17T07:10:15.578Z,6.10
2018-07-17T07:15:19.795Z,6.10
2018-07-17T07:20:23.581Z,5.27
2018-07-17T07:25:27.086Z,5.63
2018-07-17T07:30:31.524Z,5.57
2018-07-17T07:35:35.711Z,5.73
2018-07-17T07:40:39.239Z,5.70
2018-07-17T07:45:43.507Z,5.37
2018-07-17T07:50:47.044Z,4.60
2018-07-17T07:55:50.637Z,5.30
2018-07-17T08:00:55.052Z,5.07
2018-07-17T08:05:58.583Z,4.40
2018-07-17T08:11:02.189Z,4.87
2018-07-17T08:16:05.775Z,4.80
2018-07-17T08:21:09.917Z,4.60
2018-07-17T08:26:13.902Z,4.70
2018-07-17T08:31:18.132Z,4.80
2018-07-17T08:36:21.751Z,4.27
2018-07-17T08:41:25.999Z,4.60
2018-07-17T08:46:29.747Z,5.00
2018-07-17T08:51:33.318Z,4.67
2018-07-17T08:56:36.851Z,4.70
2018-07-17T09:01:40.364Z,4.63
2018-07-17T09:06:45.595Z,4.60
2018-07-17T09:11:49.399Z,5.23
2018-07-17T09:16:52.940Z,5.07
2018-07-17T09:21:56.491Z,4.70
2018-07-17T09:27:00.228Z,4.57
2018-07-17T09:32:03.787Z,4.63
2018-07-17T09:37:08.250Z,5.03
2018-07-17T09:42:12.030Z,5.23
2018-07-17T09:47:15.556Z,5.30
2018-07-17T09:52:19.312Z,5.77
2018-07-17T09:57:23.128Z,5.47
2018-07-17T10:02:28.609Z,5.10
2018-07-17T10:07:32.420Z,6.30
2018-07-17T10:12:36.160Z,5.40
2018-07-17T10:17:39.949Z,5.43
2018-07-17T10:22:43.448Z,5.63
2018-07-17T10:27:46.955Z,4.93
2018-07-17T10:32:50.492Z,5.33
2018-07-17T10:37:54.208Z,6.27
2018-07-17T10:42:58.138Z,5.17
2018-07-17T10:48:01.680Z,5.07
2018-07-17T10:53:05.651Z,4.30
2018-07-17T10:58:09.888Z,4.27
2018-07-17T11:03:13.816Z,3.70
2018-07-17T11:08:17.401Z,4.00
2018-07-17T11:13:21.338Z,4.17
2018-07-17T11:18:24.899Z,4.47
2018-07-17T11:23:29.222Z,4.57
2018-07-17T11:28:32.768Z,3.87
2018-07-17T11:33:36.675Z,4.30
2018-07-17T11:38:40.481Z,3.63
2018-07-17T11:43:44.051Z,3.83
2018-07-17T11:48:47.553Z,3.00
2018-07-17T11:53:51.103Z,3.70
2018-07-17T11:58:54.721Z,4.03
2018-07-17T12:03:58.198Z,3.73
2018-07-17T12:09:09.115Z,4.20
2018-07-17T12:14:13.012Z,3.80
2018-07-17T12:19:16.517Z,4.00
2018-07-17T12:24:25.904Z,3.47
2018-07-17T12:29:29.449Z,3.00
2018-07-17T12:34:33.616Z,2.60
2018-07-17T12:39:37.440Z,2.70
2018-07-17T12:44:41.351Z,2.10
2018-07-17T12:49:44.890Z,2.43
2018-07-17T12:54:48.824Z,1.90
2018-07-17T12:59:52.366Z,2.17
2018-07-17T13:04:55.905Z,2.30
2018-07-17T13:09:59.461Z,1.97
2018-07-17T13:15:03.209Z,1.87
2018-07-17T13:20:07.042Z,2.00
2018-07-17T13:25:10.852Z,2.20
2018-07-17T13:30:15.937Z,1.90
2018-07-17T13:35:21.111Z,2.27
2018-07-17T13:40:24.729Z,2.30
2018-07-17T13:45:28.604Z,2.20
2018-07-17T13:50:32.204Z,2.10
2018-07-17T13:55:35.996Z,2.33
2018-07-17T14:00:39.641Z,2.20
2018-07-17T14:05:45.771Z,2.50
2018-07-17T14:10:49.353Z,2.30
2018-07-17T14:15:52.994Z,2.43
2018-07-17T14:20:56.660Z,2.10
2018-07-17T14:26:00.570Z,2.67
2018-07-17T14:31:04.294Z,2.77
2018-07-17T14:36:07.911Z,3.00
2018-07-17T14:41:11.459Z,3.00
2018-07-17T14:46:15.329Z,3.50
2018-07-17T14:51:19.171Z,3.57
2018-07-17T14:56:22.678Z,3.90
2018-07-17T15:01:26.202Z,3.83
2018-07-17T15:06:29.736Z,3.60
2018-07-17T15:11:33.336Z,3.30
2018-07-17T15:16:37.358Z,3.63
2018-07-17T15:21:40.921Z,3.50
2018-07-17T15:26:44.452Z,3.70
2018-07-17T15:31:48.276Z,3.80
2018-07-17T15:36:52.135Z,2.90
2018-07-17T15:41:55.707Z,3.13
2018-07-17T15:46:59.225Z,2.80
2018-07-17T15:52:03.062Z,2.77
2018-07-17T15:57:07.159Z,2.70
2018-07-17T16:02:10.668Z,2.60
2018-07-17T16:07:14.599Z,2.80
2018-07-17T16:12:18.447Z,2.37
2018-07-17T16:17:22.525Z,2.57
2018-07-17T16:22:26.100Z,2.30
2018-07-17T16:27:29.667Z,2.30
2018-07-17T16:32:33.636Z,2.63
2018-07-17T16:37:37.644Z,2.87
2018-07-17T16:42:41.192Z,2.60
2018-07-17T16:47:44.748Z,2.67
2018-07-17T16:52:50.216Z,2.23
2018-07-17T16:57:53.750Z,2.53
2018-07-17T17:03:00.961Z,2.60
2018-07-17T17:08:04.581Z,2.50
2018-07-17T17:13:08.756Z,2.20
2018-07-17T17:18:12.320Z,2.50
2018-07-17T17:23:17.391Z,2.60
2018-07-17T17:28:20.627Z,2.77
2018-07-17T17:33:24.153Z,2.80
2018-07-17T17:38:27.712Z,2.63
2018-07-17T17:43:33.381Z,2.63
2018-07-17T17:48:36.934Z,2.70
2018-07-17T17:53:42.240Z,2.40
2018-07-17T17:58:46.812Z,2.40
2018-07-17T18:03:50.366Z,3.13
2018-07-17T18:08:54.621Z,2.90
2018-07-17T18:13:58.159Z,3.00
2018-07-17T18:19:01.678Z,3.47
2018-07-17T18:24:05.216Z,3.50
2018-07-17T18:29:08.767Z,3.17
2018-07-17T18:34:12.332Z,3.27
2018-07-17T18:39:16.422Z,3.60
2018-07-17T18:44:19.992Z,3.50
2018-07-17T18:49:23.508Z,3.70
2018-07-17T18:54:27.259Z,3.37
2018-07-17T18:59:30.974Z,3.97
2018-07-17T19:04:34.556Z,4.40
2018-07-17T19:09:39.407Z,3.90
2018-07-17T19:14:43.062Z,3.20
2018-07-17T19:19:46.929Z,3.70
2018-07-17T19:24:51.025Z,4.50
2018-07-17T19:29:54.611Z,4.03
2018-07-17T19:34:58.203Z,3.53
2018-07-17T19:40:01.746Z,3.73
2018-07-17T19:45:05.433Z,3.20
2018-07-17T19:50:09.427Z,3.47
2018-07-17T19:55:13.773Z,4.20
2018-07-17T20:00:17.297Z,3.90
2018-07-17T20:05:21.798Z,3.40
2018-07-17T20:10:34.917Z,3.33
2018-07-17T20:15:38.521Z,3.70
2018-07-17T20:20:42.685Z,3.87
2018-07-17T20:25:48.488Z,3.67
2018-07-17T20:30:52.394Z,3.80
2018-07-17T20:35:56.712Z,3.80
2018-07-17T20:41:00.281Z,3.37
2018-07-17T20:46:03.852Z,4.40
2018-07-17T20:51:07.985Z,3.80
2018-07-17T20:56:11.521Z,3.53
2018-07-17T21:01:15.113Z,3.57
2018-07-17T21:06:19.220Z,3.67
2018-07-17T21:11:23.143Z,3.10
2018-07-17T21:16:26.686Z,3.50
2018-07-17T21:21:30.361Z,3.30
2018-07-17T21:26:33.927Z,3.60
2018-07-17T21:31:37.475Z,3.80
2018-07-17T21:36:41.056Z,3.80
2018-07-17T21:41:44.576Z,3.70
2018-07-17T21:46:55.641Z,3.70
2018-07-17T21:51:59.511Z,3.43
2018-07-17T21:57:03.006Z,4.00
2018-07-17T22:02:06.559Z,3.90
2018-07-17T22:07:10.138Z,3.60
2018-07-17T22:12:13.682Z,3.67
2018-07-17T22:17:17.252Z,4.00
2018-07-17T22:22:21.445Z,3.80
2018-07-17T22:27:25.008Z,3.60
2018-07-17T22:32:28.552Z,4.20
2018-07-17T22:37:32.472Z,4.20
2018-07-17T22:42:36.022Z,4.40
2018-07-17T22:47:39.548Z,4.50
2018-07-17T22:52:43.208Z,4.57
2018-07-17T22:57:46.746Z,5.17
2018-07-17T23:02:50.274Z,4.60
2018-07-17T23:07:54.512Z,4.20
2018-07-17T23:12:58.101Z,4.57
2018-07-17T23:18:02.240Z,3.97
2018-07-17T23:23:05.778Z,4.73
2018-07-17T23:28:09.808Z,4.70
2018-07-17T23:33:13.359Z,4.73
2018-07-17T23:38:16.896Z,4.40
2018-07-17T23:43:20.472Z,4.60
2018-07-17T23:48:23.998Z,5.13
2018-07-17T23:53:27.532Z,4.57
2018-07-17T23:58:31.082Z,5.07
